Time;durP1;ratioP1;P1;durP2;ratioP2;P2;SDS_P1;SDS_P2;PMS_P1;PMS_P2;Temp;Humidity;BMP_temperature;BMP_pressure;BME280_temperature;BME280_humidity;BME280_pressure;Samples;Min_cycle;Max_cycle;Signal;HPM_P1;HPM_P2
2022/12/28 00:02:16;;;;;;;5.03;3.17;;;4.50;99.90;;;;;;5024208;28;20451;-70
2022/12/28 00:04:42;;;;;;;4.03;2.83;;;4.60;99.90;;;;;;5032834;28;20507;-71
2022/12/28 00:07:08;;;;;;;5.30;3.03;;;4.60;99.90;;;;;;5013217;28;20467;-70
2022/12/28 00:09:33;;;;;;;4.57;3.50;;;4.70;99.90;;;;;;5015461;28;20213;-70
2022/12/28 00:11:59;;;;;;;4.97;3.00;;;4.70;99.90;;;;;;5015642;28;20293;-70
2022/12/28 00:14:25;;;;;;;5.97;3.70;;;4.70;99.90;;;;;;5015034;28;20302;-70
2022/12/28 00:16:50;;;;;;;8.00;3.83;;;4.70;99.90;;;;;;5032445;28;20249;-70
2022/12/28 00:19:16;;;;;;;8.40;3.60;;;4.70;99.90;;;;;;5015323;28;20224;-71
2022/12/28 00:21:43;;;;;;;4.13;3.50;;;4.70;99.90;;;;;;5033210;28;20235;-69
2022/12/28 00:24:22;;;;;;;8.93;3.13;;;4.70;99.90;;;;;;5032300;28;20212;-71
2022/12/28 00:26:48;;;;;;;6.30;3.53;;;4.80;99.90;;;;;;5032512;28;20917;-70
2022/12/28 00:29:14;;;;;;;4.60;3.40;;;4.70;99.90;;;;;;5031985;28;20435;-70
2022/12/28 00:31:40;;;;;;;5.07;3.77;;;4.80;99.90;;;;;;5031539;28;20808;-69
2022/12/28 00:34:05;;;;;;;8.10;3.53;;;4.80;99.90;;;;;;5031541;28;20231;-70
2022/12/28 00:36:32;;;;;;;5.20;3.50;;;4.80;99.90;;;;;;5032856;28;20246;-69
2022/12/28 00:38:58;;;;;;;6.60;3.37;;;4.80;99.90;;;;;;5031466;28;20486;-70
2022/12/28 00:41:24;;;;;;;5.00;2.83;;;4.70;99.90;;;;;;5015533;28;20216;-70
2022/12/28 00:43:50;;;;;;;5.17;3.30;;;4.70;99.90;;;;;;5025576;28;20441;-70
2022/12/28 00:46:16;;;;;;;8.37;3.73;;;4.70;99.90;;;;;;5018083;28;20251;-70
2022/12/28 00:48:42;;;;;;;6.10;3.63;;;4.70;99.90;;;;;;5007856;28;20486;-70
2022/12/28 00:51:13;;;;;;;6.80;3.43;;;4.70;99.90;;;;;;5043190;28;20245;-70
2022/12/28 00:53:39;;;;;;;4.97;3.67;;;4.70;99.90;;;;;;5032475;28;20455;-70
2022/12/28 00:56:13;;;;;;;5.60;3.40;;;4.80;99.90;;;;;;5012965;28;20470;-70
2022/12/28 00:58:40;;;;;;;3.60;2.97;;;4.70;99.90;;;;;;5019646;28;21062;-69
2022/12/28 01:01:11;;;;;;;6.20;3.80;;;4.70;99.90;;;;;;5015889;28;20459;-70
2022/12/28 01:03:37;;;;;;;6.47;3.33;;;4.70;99.90;;;;;;5017491;28;20220;-70
2022/12/28 01:06:07;;;;;;;5.33;3.23;;;4.70;99.90;;;;;;5021193;28;20454;-70
2022/12/28 01:08:36;;;;;;;4.57;3.90;;;4.60;99.90;;;;;;5027612;28;20216;-71
2022/12/28 01:11:17;;;;;;;6.90;4.10;;;4.60;99.90;;;;;;5026540;28;20455;-70
2022/12/28 01:13:44;;;;;;;5.90;3.20;;;4.70;99.90;;;;;;5012548;28;20476;-70
2022/12/28 01:16:15;;;;;;;6.70;3.87;;;4.70;99.90;;;;;;5011594;28;20467;-70
2022/12/28 01:18:41;;;;;;;7.47;4.43;;;4.70;99.90;;;;;;5013718;28;20512;-70
2022/12/28 01:21:12;;;;;;;9.03;4.33;;;4.70;99.90;;;;;;5030695;28;20443;-71
2022/12/28 01:23:40;;;;;;;7.60;4.33;;;4.80;99.90;;;;;;5015276;28;20462;-69
2022/12/28 01:26:08;;;;;;;4.53;3.90;;;4.80;99.90;;;;;;5022726;28;20537;-70
2022/12/28 01:28:33;;;;;;;7.03;4.13;;;4.80;99.90;;;;;;5016174;28;20212;-70
2022/12/28 01:31:06;;;;;;;4.53;3.27;;;4.80;99.90;;;;;;5028689;28;20989;-70
2022/12/28 01:33:32;;;;;;;7.33;4.40;;;4.80;99.90;;;;;;5013871;28;20223;-71
2022/12/28 01:35:58;;;;;;;11.80;4.40;;;4.80;99.90;;;;;;5019531;28;20459;-70
2022/12/28 01:38:23;;;;;;;4.53;3.70;;;4.70;99.90;;;;;;5014862;28;20219;-70
2022/12/28 01:40:49;;;;;;;6.90;4.00;;;4.70;99.90;;;;;;5031830;28;20245;-70
2022/12/28 01:43:15;;;;;;;6.90;3.73;;;4.70;99.90;;;;;;5014245;28;20683;-70
2022/12/28 01:45:50;;;;;;;9.13;5.00;;;4.60;99.90;;;;;;5032680;28;20220;-70
2022/12/28 01:48:23;;;;;;;7.13;4.37;;;4.60;99.90;;;;;;5011075;28;20457;-70
2022/12/28 01:50:49;;;;;;;5.43;4.27;;;4.60;99.90;;;;;;5039559;28;20519;-69
2022/12/28 01:53:17;;;;;;;9.27;3.97;;;4.70;99.90;;;;;;5020593;28;20450;-70
2022/12/28 01:55:46;;;;;;;8.33;4.07;;;4.70;99.90;;;;;;5038041;28;20478;-69
2022/12/28 01:58:24;;;;;;;8.30;4.20;;;4.70;99.90;;;;;;5032151;28;20465;-70
2022/12/28 02:00:50;;;;;;;6.87;4.90;;;4.70;99.90;;;;;;5037234;28;20449;-71
2022/12/28 02:03:21;;;;;;;6.57;4.47;;;4.70;99.90;;;;;;5018817;28;20462;-70
2022/12/28 02:05:52;;;;;;;6.93;4.40;;;4.70;99.90;;;;;;5021367;28;20687;-70
2022/12/28 02:08:31;;;;;;;4.83;4.10;;;4.70;99.90;;;;;;5028136;28;20458;-70
2022/12/28 02:10:59;;;;;;;6.47;3.90;;;4.70;99.90;;;;;;5047834;28;20447;-70
2022/12/28 02:13:25;;;;;;;7.07;4.57;;;4.80;99.90;;;;;;5048846;28;20473;-70
2022/12/28 02:15:51;;;;;;;6.70;4.37;;;4.80;99.90;;;;;;5021809;28;20457;-69
2022/12/28 02:18:19;;;;;;;4.87;4.10;;;4.80;99.90;;;;;;5019487;28;20632;-70
2022/12/28 02:21:12;;;;;;;6.10;4.80;;;4.90;99.90;;;;;;5036894;28;20821;-70
2022/12/28 02:23:47;;;;;;;8.20;4.10;;;4.90;99.90;;;;;;5037240;28;20454;-70
2022/12/28 02:26:30;;;;;;;10.20;5.10;;;4.90;99.90;;;;;;5035324;28;20466;-71
2022/12/28 02:29:36;;;;;;;4.53;3.90;;;5.00;99.90;;;;;;5020208;28;20457;-69
2022/12/28 02:32:22;;;;;;;7.20;4.47;;;5.00;99.90;;;;;;5015822;28;20473;-70
2022/12/28 02:34:48;;;;;;;9.20;4.23;;;5.00;99.90;;;;;;5025386;28;20473;-67
2022/12/28 02:37:23;;;;;;;6.60;4.37;;;5.00;99.90;;;;;;5025368;28;20465;-70
2022/12/28 02:39:57;;;;;;;6.23;3.70;;;5.00;99.90;;;;;;5038166;28;20230;-70
2022/12/28 02:42:25;;;;;;;5.13;3.80;;;5.00;99.90;;;;;;5032188;28;20493;-71
2022/12/28 02:50:35;;;;;;;6.13;4.40;;;5.10;99.90;;;;;;5029991;28;20447;-70
2022/12/28 02:53:27;;;;;;;7.87;4.20;;;5.10;99.90;;;;;;5031835;28;20449;-71
2022/12/28 02:56:08;;;;;;;6.20;4.37;;;5.10;99.90;;;;;;5046605;28;20495;-70
2022/12/28 02:59:11;;;;;;;6.73;4.20;;;5.10;99.90;;;;;;5017430;28;20490;-71
2022/12/28 03:02:01;;;;;;;4.93;4.20;;;5.20;99.90;;;;;;5048062;28;20450;-70
2022/12/28 03:04:55;;;;;;;5.90;3.33;;;5.20;99.90;;;;;;5009902;28;20451;-71
2022/12/28 03:10:11;;;;;;;6.73;4.40;;;5.20;99.90;;;;;;5024386;28;20466;-71
2022/12/28 03:12:52;;;;;;;5.80;4.37;;;5.20;99.90;;;;;;5024483;28;20822;-71
2022/12/28 03:15:35;;;;;;;5.80;3.77;;;5.30;99.90;;;;;;5029168;28;20230;-71
2022/12/28 03:32:17;;;;;;;8.03;4.10;;;5.30;99.90;;;;;;5033144;28;20471;-71
2022/12/28 03:34:43;;;;;;;6.30;4.00;;;5.30;99.90;;;;;;5034373;28;20497;-70
2022/12/28 03:37:32;;;;;;;6.97;4.37;;;5.40;99.90;;;;;;5013899;28;20275;-70
2022/12/28 03:40:10;;;;;;;7.40;3.63;;;5.40;99.90;;;;;;5004090;28;20242;-71
2022/12/28 03:45:48;;;;;;;5.40;3.50;;;5.40;99.90;;;;;;5033993;28;20459;-70
2022/12/28 03:48:16;;;;;;;10.30;3.73;;;5.40;99.90;;;;;;5040555;28;20455;-70
2022/12/28 03:50:45;;;;;;;5.43;3.80;;;5.40;99.90;;;;;;5047474;28;20465;-69
2022/12/28 03:53:16;;;;;;;4.47;3.37;;;5.40;99.90;;;;;;5020167;28;20456;-71
2022/12/28 03:55:42;;;;;;;10.07;3.90;;;5.50;99.90;;;;;;5022336;28;20537;-71
2022/12/28 03:58:08;;;;;;;3.97;3.13;;;5.50;99.90;;;;;;5018842;28;20454;-71
2022/12/28 04:00:36;;;;;;;7.20;4.90;;;5.50;99.90;;;;;;5033632;28;20523;-71
2022/12/28 04:03:02;;;;;;;6.40;4.33;;;5.50;99.90;;;;;;5024197;28;20508;-71
2022/12/28 04:05:27;;;;;;;8.20;5.10;;;5.50;99.90;;;;;;5039642;28;20446;-71
2022/12/28 04:07:53;;;;;;;5.40;3.30;;;5.50;99.90;;;;;;5033301;28;20751;-71
2022/12/28 04:10:19;;;;;;;11.00;4.33;;;5.60;99.90;;;;;;5016885;28;20219;-70
2022/12/28 04:12:45;;;;;;;4.57;3.73;;;5.60;99.90;;;;;;5032208;28;20469;-69
2022/12/28 04:15:31;;;;;;;4.10;3.60;;;5.60;99.90;;;;;;5033701;28;20228;-70
2022/12/28 04:18:01;;;;;;;4.23;3.83;;;5.70;99.90;;;;;;5031574;28;20454;-71
2022/12/28 04:20:27;;;;;;;4.73;3.80;;;5.60;99.90;;;;;;5035361;28;20462;-71
2022/12/28 04:22:53;;;;;;;5.90;3.80;;;5.70;99.90;;;;;;5038272;28;20467;-71
2022/12/28 04:25:19;;;;;;;4.00;3.30;;;5.70;99.90;;;;;;5016818;28;20699;-71
2022/12/28 04:27:44;;;;;;;5.93;4.67;;;5.70;99.90;;;;;;5048932;28;20219;-70
2022/12/28 04:30:30;;;;;;;6.53;4.20;;;5.70;99.90;;;;;;5031060;28;20250;-71
2022/12/28 04:32:56;;;;;;;5.20;3.53;;;5.70;99.90;;;;;;5014402;28;20998;-71
2022/12/28 04:35:22;;;;;;;4.20;3.40;;;5.70;99.90;;;;;;5032209;28;20462;-70
2022/12/28 04:37:49;;;;;;;6.30;3.20;;;5.80;99.90;;;;;;5016302;28;20224;-70
2022/12/28 04:40:14;;;;;;;3.60;3.13;;;5.80;99.90;;;;;;5012891;28;21026;-70
2022/12/28 04:42:40;;;;;;;3.90;3.40;;;5.80;99.90;;;;;;4997185;28;20216;-71
2022/12/28 04:45:06;;;;;;;4.23;3.83;;;5.80;99.90;;;;;;5003843;28;20227;-71
2022/12/28 04:47:32;;;;;;;4.50;3.30;;;5.80;99.90;;;;;;5024382;28;20227;-70
2022/12/28 04:49:58;;;;;;;4.10;3.70;;;5.90;99.90;;;;;;5037528;28;20460;-70
2022/12/28 04:52:23;;;;;;;5.53;3.40;;;5.80;99.90;;;;;;5009122;28;20266;-71
2022/12/28 04:54:49;;;;;;;6.67;4.37;;;5.90;99.90;;;;;;5036783;28;20235;-69
2022/12/28 04:57:15;;;;;;;4.27;3.40;;;5.90;99.90;;;;;;5031689;28;20350;-70
2022/12/28 04:59:41;;;;;;;7.23;3.93;;;5.90;99.90;;;;;;5031739;28;20731;-69
2022/12/28 05:02:06;;;;;;;5.40;4.50;;;6.00;99.90;;;;;;5031866;28;20219;-70
2022/12/28 05:04:32;;;;;;;6.93;3.83;;;6.00;99.90;;;;;;5036550;28;20231;-70
2022/12/28 05:06:58;;;;;;;4.83;3.90;;;6.00;99.90;;;;;;5049718;28;20534;-70
2022/12/28 05:09:23;;;;;;;5.27;3.83;;;6.10;99.90;;;;;;5009119;28;20223;-71
2022/12/28 05:11:49;;;;;;;7.00;3.70;;;6.10;99.90;;;;;;5031832;28;20230;-70
2022/12/28 05:14:15;;;;;;;5.57;3.77;;;6.10;99.90;;;;;;5014569;28;20220;-70
2022/12/28 05:16:41;;;;;;;4.40;3.00;;;6.10;99.90;;;;;;5031299;28;20222;-70
2022/12/28 05:19:06;;;;;;;4.33;3.60;;;6.10;99.90;;;;;;5031002;28;20291;-70
2022/12/28 05:21:32;;;;;;;4.73;3.40;;;6.20;99.90;;;;;;5012468;28;20755;-70
2022/12/28 05:23:58;;;;;;;5.57;4.00;;;6.20;99.90;;;;;;5014640;28;20228;-70
2022/12/28 05:26:27;;;;;;;4.30;3.30;;;6.30;99.90;;;;;;5015004;28;20298;-71
2022/12/28 05:28:54;;;;;;;3.87;3.37;;;6.30;99.90;;;;;;5020142;28;20293;-71
2022/12/28 05:31:21;;;;;;;4.23;3.10;;;6.30;99.90;;;;;;5014700;28;20446;-70
2022/12/28 05:33:48;;;;;;;5.50;2.87;;;6.30;99.90;;;;;;5032426;28;20988;-69
2022/12/28 05:36:16;;;;;;;3.67;3.40;;;6.30;99.90;;;;;;5031553;28;20466;-70
2022/12/28 05:38:42;;;;;;;6.20;2.87;;;6.30;99.90;;;;;;5031560;28;20815;-71
2022/12/28 05:41:10;;;;;;;8.40;3.90;;;6.30;99.90;;;;;;5028096;28;20455;-71
2022/12/28 05:43:36;;;;;;;6.53;3.60;;;6.40;99.90;;;;;;5032178;28;20226;-70
2022/12/28 05:46:07;;;;;;;5.33;4.27;;;6.40;99.90;;;;;;5046982;28;20462;-70
2022/12/28 05:48:34;;;;;;;5.20;3.77;;;6.40;99.90;;;;;;5013877;28;20231;-70
2022/12/28 05:51:05;;;;;;;4.93;3.43;;;6.50;99.90;;;;;;5029529;28;20546;-70
2022/12/28 05:53:32;;;;;;;2.93;2.60;;;6.60;99.90;;;;;;5019400;28;20459;-71
2022/12/28 05:56:06;;;;;;;4.07;2.80;;;6.60;99.90;;;;;;5030871;28;20486;-71
2022/12/28 05:58:32;;;;;;;4.60;3.30;;;6.60;99.90;;;;;;5026078;28;20450;-71
2022/12/28 06:01:13;;;;;;;5.40;3.00;;;6.70;99.90;;;;;;5030620;28;20465;-71
2022/12/28 06:03:39;;;;;;;4.43;2.77;;;6.70;99.90;;;;;;5031506;28;20219;-71
2022/12/28 06:06:14;;;;;;;8.17;2.97;;;6.80;99.90;;;;;;5031079;28;20504;-71
2022/12/28 06:08:41;;;;;;;4.47;2.83;;;6.80;99.90;;;;;;5029825;28;20458;-69
2022/12/28 06:11:10;;;;;;;2.83;2.60;;;6.80;99.90;;;;;;5030062;28;20451;-71
2022/12/28 06:13:36;;;;;;;4.97;3.00;;;6.70;99.90;;;;;;5031653;28;20973;-71
2022/12/28 06:16:10;;;;;;;4.20;2.97;;;6.70;99.90;;;;;;5039062;28;20490;-70
2022/12/28 06:18:36;;;;;;;4.70;2.97;;;6.70;99.90;;;;;;5016616;28;20226;-71
2022/12/28 06:21:13;;;;;;;5.73;3.30;;;6.70;99.90;;;;;;5017128;28;20454;-70
2022/12/28 06:23:39;;;;;;;3.50;3.13;;;6.80;99.90;;;;;;5044244;28;20219;-70
2022/12/28 06:26:07;;;;;;;3.93;3.10;;;6.80;99.90;;;;;;5037446;28;20442;-71
2022/12/28 06:28:35;;;;;;;5.53;3.60;;;6.80;99.90;;;;;;5028128;28;20450;-71
2022/12/28 06:31:09;;;;;;;5.20;2.37;;;6.80;99.90;;;;;;5025166;28;20516;-70
2022/12/28 06:33:35;;;;;;;3.33;2.50;;;6.80;99.90;;;;;;5031548;28;20520;-71
2022/12/28 06:36:01;;;;;;;3.00;2.57;;;6.80;99.90;;;;;;5015013;28;20470;-70
2022/12/28 06:38:30;;;;;;;3.00;2.70;;;6.80;99.90;;;;;;5020506;28;20225;-71
2022/12/28 06:41:01;;;;;;;4.40;2.60;;;6.80;99.90;;;;;;5014135;28;20450;-71
2022/12/28 06:43:33;;;;;;;5.40;2.50;;;6.80;99.90;;;;;;5006156;28;20450;-71
2022/12/28 06:46:00;;;;;;;3.97;2.80;;;6.90;99.90;;;;;;5036976;28;20458;-70
2022/12/28 06:48:26;;;;;;;3.27;2.97;;;6.90;99.90;;;;;;5052906;28;20905;-71
2022/12/28 06:51:00;;;;;;;2.90;2.70;;;6.90;99.90;;;;;;5027140;28;20497;-71
2022/12/28 06:53:28;;;;;;;2.40;2.20;;;6.80;99.90;;;;;;5038323;28;20484;-71
2022/12/28 06:55:59;;;;;;;3.60;2.77;;;6.90;99.90;;;;;;5052454;28;20900;-71
2022/12/28 06:58:26;;;;;;;5.60;2.50;;;6.80;99.90;;;;;;5034281;28;20450;-71
2022/12/28 07:00:53;;;;;;;3.00;2.67;;;6.90;99.90;;;;;;5024500;28;20457;-71
2022/12/28 07:03:20;;;;;;;2.93;2.43;;;6.80;99.90;;;;;;5033523;28;20443;-71
2022/12/28 07:05:46;;;;;;;5.27;3.27;;;6.80;99.90;;;;;;5035279;28;20469;-71
2022/12/28 07:08:12;;;;;;;2.53;2.33;;;6.80;99.90;;;;;;5033552;28;21056;-71
2022/12/28 07:10:38;;;;;;;4.60;3.33;;;6.80;99.90;;;;;;5035236;28;20223;-71
2022/12/28 07:13:04;;;;;;;3.47;3.17;;;6.80;99.90;;;;;;5009691;28;20461;-72
2022/12/28 07:15:30;;;;;;;3.67;2.57;;;6.90;99.90;;;;;;5014970;28;20232;-71
2022/12/28 07:17:57;;;;;;;3.10;2.63;;;6.90;99.90;;;;;;5012237;28;20451;-71
2022/12/28 07:20:23;;;;;;;5.00;2.70;;;6.90;99.90;;;;;;5037034;28;20465;-71
2022/12/28 07:22:49;;;;;;;4.60;2.83;;;6.90;99.90;;;;;;5036996;28;20458;-71
2022/12/28 07:25:15;;;;;;;3.10;2.80;;;6.90;99.90;;;;;;5034045;28;20439;-72
2022/12/28 07:27:40;;;;;;;3.60;3.13;;;6.90;99.90;;;;;;5032992;28;20220;-70
2022/12/28 07:30:07;;;;;;;3.40;2.67;;;6.90;99.90;;;;;;5033786;28;20215;-72
2022/12/28 07:32:36;;;;;;;4.37;2.93;;;6.90;99.90;;;;;;5022412;28;20244;-71
2022/12/28 07:35:02;;;;;;;4.00;2.70;;;6.90;99.90;;;;;;5017495;28;20478;-72
2022/12/28 07:37:27;;;;;;;8.03;3.70;;;6.90;99.90;;;;;;5033861;28;20836;-71
2022/12/28 07:39:53;;;;;;;4.23;3.40;;;6.90;99.90;;;;;;5034210;28;20597;-72
2022/12/28 07:42:19;;;;;;;3.40;3.10;;;6.90;99.90;;;;;;5013948;28;20240;-72
2022/12/28 07:44:46;;;;;;;3.93;3.17;;;6.90;99.90;;;;;;5014955;28;20588;-72
2022/12/28 07:47:13;;;;;;;2.83;2.30;;;6.90;99.90;;;;;;5012650;28;20231;-72
2022/12/28 07:49:39;;;;;;;3.00;2.50;;;6.90;99.90;;;;;;5033479;28;20677;-72
2022/12/28 07:52:05;;;;;;;4.13;2.80;;;6.90;99.90;;;;;;5017332;28;20549;-72
2022/12/28 07:54:30;;;;;;;2.77;2.30;;;6.90;99.90;;;;;;5025248;28;20508;-72
2022/12/28 07:56:56;;;;;;;4.10;3.20;;;6.90;99.90;;;;;;5016493;28;20484;-71
2022/12/28 07:59:22;;;;;;;4.53;2.70;;;6.90;99.90;;;;;;5032776;28;20216;-72
2022/12/28 08:01:50;;;;;;;6.77;2.90;;;7.00;99.90;;;;;;5031104;28;20208;-71
2022/12/28 08:04:16;;;;;;;8.10;3.07;;;7.00;99.90;;;;;;5032794;28;20227;-71
2022/12/28 08:06:43;;;;;;;5.03;2.87;;;7.00;99.90;;;;;;5017015;28;20450;-72
2022/12/28 08:09:11;;;;;;;3.13;2.90;;;6.90;99.90;;;;;;5050888;28;20533;-72
2022/12/28 08:11:39;;;;;;;5.93;2.93;;;7.00;99.90;;;;;;5002867;28;20453;-72
2022/12/28 08:14:06;;;;;;;4.93;3.20;;;7.00;99.90;;;;;;5025179;28;20449;-71
2022/12/28 08:16:40;;;;;;;2.50;2.30;;;7.00;99.90;;;;;;5037439;28;20523;-72
2022/12/28 08:19:07;;;;;;;6.33;3.00;;;7.00;99.90;;;;;;5027213;28;20449;-72
2022/12/28 08:21:39;;;;;;;6.17;3.20;;;7.00;99.90;;;;;;5045904;28;20826;-71
2022/12/28 08:24:06;;;;;;;2.77;2.57;;;7.00;99.90;;;;;;5034252;28;20471;-72
2022/12/28 08:26:35;;;;;;;5.03;2.57;;;7.00;99.90;;;;;;5031219;28;20490;-71
2022/12/28 08:29:03;;;;;;;3.30;2.27;;;7.00;99.90;;;;;;5030709;28;20459;-71
2022/12/28 08:31:36;;;;;;;2.30;1.80;;;7.00;99.90;;;;;;5022442;28;20466;-72
2022/12/28 08:34:03;;;;;;;3.23;2.90;;;7.10;99.90;;;;;;5030102;28;20490;-74
2022/12/28 08:36:29;;;;;;;3.20;2.43;;;7.10;99.90;;;;;;5049872;28;20447;-72
2022/12/28 08:38:58;;;;;;;4.97;3.27;;;7.10;99.90;;;;;;5017715;28;20462;-72
2022/12/28 08:41:26;;;;;;;5.30;3.67;;;7.10;99.90;;;;;;5016173;28;20220;-72
2022/12/28 08:43:53;;;;;;;4.83;3.33;;;7.10;99.90;;;;;;5016558;28;20526;-71
2022/12/28 08:46:26;;;;;;;2.87;2.60;;;7.10;99.90;;;;;;5043783;28;20954;-72
2022/12/28 08:48:54;;;;;;;4.00;2.53;;;7.10;99.90;;;;;;5032001;28;20461;-71
2022/12/28 08:51:32;;;;;;;3.40;2.93;;;7.10;99.90;;;;;;5067291;28;20462;-72
2022/12/28 08:53:59;;;;;;;3.83;3.43;;;7.20;99.90;;;;;;5033072;28;20532;-72
2022/12/28 08:56:27;;;;;;;4.70;3.00;;;7.20;99.90;;;;;;5026663;28;20540;-72
2022/12/28 08:58:54;;;;;;;2.90;2.40;;;7.20;99.90;;;;;;5025172;28;20461;-72
2022/12/28 09:01:23;;;;;;;3.20;2.90;;;7.20;99.90;;;;;;5036083;28;20465;-72
2022/12/28 09:03:52;;;;;;;3.77;2.87;;;7.30;99.90;;;;;;5024364;28;20534;-70
2022/12/28 09:06:23;;;;;;;3.97;2.50;;;7.30;99.90;;;;;;5025059;28;20447;-72
2022/12/28 09:08:51;;;;;;;3.10;2.80;;;7.30;99.90;;;;;;5015713;28;20461;-72
2022/12/28 09:11:17;;;;;;;3.67;2.70;;;7.40;99.90;;;;;;5031545;28;20549;-72
2022/12/28 09:13:43;;;;;;;3.60;2.83;;;7.40;99.90;;;;;;5023934;28;20450;-72
2022/12/28 09:16:15;;;;;;;3.50;2.50;;;7.40;99.90;;;;;;5049843;28;20473;-72
2022/12/28 09:18:42;;;;;;;2.43;2.23;;;7.40;99.90;;;;;;5027517;28;20232;-71
2022/12/28 09:21:19;;;;;;;5.73;2.30;;;7.40;99.90;;;;;;5031549;28;20879;-72
2022/12/28 09:23:46;;;;;;;2.13;1.93;;;7.40;99.90;;;;;;5016287;28;20458;-72
2022/12/28 09:26:14;;;;;;;3.27;2.60;;;7.40;99.90;;;;;;5031603;28;20542;-72
2022/12/28 09:28:46;;;;;;;2.70;2.07;;;7.50;99.90;;;;;;5022323;28;20542;-72
2022/12/28 09:31:13;;;;;;;2.50;2.30;;;7.50;99.90;;;;;;5028180;28;20543;-72
2022/12/28 09:36:23;;;;;;;2.27;2.07;;;7.50;99.90;;;;;;5035129;28;20450;-72
2022/12/28 09:38:50;;;;;;;2.63;2.43;;;7.50;99.90;;;;;;5048178;28;20461;-72
2022/12/28 09:41:32;;;;;;;4.03;1.93;;;7.50;99.90;;;;;;5031742;28;20500;-72
2022/12/28 09:44:43;;;;;;;2.70;2.50;;;7.50;99.90;;;;;;5030049;28;20450;-72
2022/12/28 09:47:29;;;;;;;5.20;2.40;;;7.60;99.90;;;;;;5031513;28;20467;-72
2022/12/28 09:50:03;;;;;;;2.30;2.10;;;7.50;99.90;;;;;;5036734;28;20457;-72
2022/12/28 09:52:31;;;;;;;8.20;3.03;;;7.60;99.90;;;;;;5009797;28;20456;-72
2022/12/28 09:55:10;;;;;;;6.60;2.57;;;7.60;99.90;;;;;;5012946;28;20570;-72
2022/12/28 09:57:41;;;;;;;3.47;2.13;;;7.60;99.90;;;;;;5031129;28;20446;-72
2022/12/28 10:00:15;;;;;;;2.57;2.37;;;7.60;99.90;;;;;;5023092;28;20535;-72
2022/12/28 10:02:42;;;;;;;3.03;2.70;;;7.60;99.90;;;;;;5030055;28;20504;-72
2022/12/28 10:05:08;;;;;;;6.53;2.43;;;7.60;99.90;;;;;;5031269;28;20986;-72
2022/12/28 10:07:36;;;;;;;4.70;2.50;;;7.60;99.90;;;;;;5049633;28;20584;-72
2022/12/28 10:10:02;;;;;;;3.60;3.20;;;7.60;99.90;;;;;;5014204;28;20434;-72
2022/12/28 10:12:29;;;;;;;7.43;2.33;;;7.60;99.90;;;;;;5036313;28;20458;-72
2022/12/28 10:14:55;;;;;;;2.47;2.27;;;7.60;99.90;;;;;;5031002;28;20977;-71
2022/12/28 10:17:26;;;;;;;2.57;2.40;;;7.60;99.90;;;;;;5015842;28;20449;-72
2022/12/28 10:19:56;;;;;;;8.23;2.63;;;7.70;99.90;;;;;;5034072;28;20456;-72
2022/12/28 10:22:23;;;;;;;2.50;2.07;;;7.70;99.90;;;;;;5015856;28;20443;-72
2022/12/28 10:24:49;;;;;;;5.70;2.53;;;7.70;99.90;;;;;;5028524;28;20450;-72
2022/12/28 10:27:30;;;;;;;3.80;2.30;;;7.70;99.90;;;;;;5025314;28;20462;-71
2022/12/28 10:30:00;;;;;;;2.20;2.07;;;7.70;99.90;;;;;;5019207;28;20239;-72
2022/12/28 10:32:25;;;;;;;3.27;2.40;;;7.70;99.90;;;;;;5053588;28;20876;-71
2022/12/28 10:35:01;;;;;;;2.23;2.03;;;7.80;99.90;;;;;;5034820;28;20501;-71
2022/12/28 10:37:31;;;;;;;3.60;2.40;;;7.70;99.90;;;;;;5033571;28;20692;-72
2022/12/28 10:40:17;;;;;;;2.77;2.57;;;7.80;99.90;;;;;;5012428;28;20443;-72
2022/12/28 10:42:45;;;;;;;6.07;2.63;;;7.80;99.90;;;;;;5011458;28;20454;-72
2022/12/28 10:45:20;;;;;;;2.60;2.40;;;7.80;99.90;;;;;;5031573;28;20457;-71
2022/12/28 10:47:49;;;;;;;4.40;2.10;;;7.80;99.90;;;;;;5042822;28;20451;-71
2022/12/28 10:50:39;;;;;;;4.30;2.83;;;7.80;99.90;;;;;;5018173;28;20462;-72
2022/12/28 10:53:38;;;;;;;3.70;3.23;;;7.80;99.90;;;;;;5042007;28;20961;-71
2022/12/28 10:56:13;;;;;;;2.63;2.43;;;7.70;99.90;;;;;;5021565;28;20557;-71
2022/12/28 10:58:39;;;;;;;2.63;2.10;;;7.80;99.90;;;;;;5028077;28;20536;-72
2022/12/28 11:01:11;;;;;;;4.43;2.67;;;7.80;99.90;;;;;;5029526;28;20454;-71
2022/12/28 11:03:42;;;;;;;3.77;2.63;;;7.80;99.90;;;;;;5030047;28;20446;-71
2022/12/28 11:06:19;;;;;;;3.43;2.30;;;7.80;99.90;;;;;;5042843;28;20992;-71
2022/12/28 11:09:02;;;;;;;2.87;2.67;;;7.80;99.90;;;;;;5009928;28;20470;-71
2022/12/28 11:11:28;;;;;;;2.87;2.57;;;7.90;99.90;;;;;;5045649;28;20473;-72
2022/12/28 11:14:16;;;;;;;2.77;2.57;;;7.90;99.90;;;;;;5049323;28;20454;-71
2022/12/28 11:16:42;;;;;;;5.80;3.10;;;7.90;99.90;;;;;;5047925;28;20446;-71
2022/12/28 11:19:09;;;;;;;3.17;2.30;;;7.90;99.90;;;;;;5033071;28;20447;-72
2022/12/28 11:21:35;;;;;;;2.83;2.60;;;7.90;99.90;;;;;;5016102;28;20458;-72
2022/12/28 11:24:02;;;;;;;2.27;2.07;;;8.00;99.90;;;;;;5032862;28;20450;-71
2022/12/28 11:26:28;;;;;;;2.80;2.60;;;8.00;99.90;;;;;;5030801;28;20532;-71
2022/12/28 11:28:54;;;;;;;2.40;2.20;;;8.00;99.90;;;;;;5026537;28;20463;-72
2022/12/28 11:31:40;;;;;;;3.20;2.40;;;8.00;99.90;;;;;;5032010;28;20443;-71
2022/12/28 11:34:15;;;;;;;3.10;2.77;;;8.10;99.90;;;;;;5026661;28;20227;-72
2022/12/28 11:36:41;;;;;;;2.30;2.10;;;8.10;99.90;;;;;;5031749;28;20458;-71
2022/12/28 11:39:25;;;;;;;3.60;2.90;;;8.10;99.90;;;;;;5049856;28;20529;-72
2022/12/28 11:41:52;;;;;;;2.30;1.97;;;8.10;99.90;;;;;;5050492;28;20226;-71
2022/12/28 11:44:38;;;;;;;11.80;8.33;;;8.10;99.90;;;;;;5007976;28;20461;-71
2022/12/28 11:47:21;;;;;;;35.20;18.90;;;8.20;99.90;;;;;;5004544;28;20443;-72
2022/12/28 11:49:47;;;;;;;39.87;21.23;;;8.30;99.90;;;;;;5028689;28;20459;-72
2022/12/28 11:52:15;;;;;;;18.47;12.40;;;8.30;99.90;;;;;;5032692;28;20455;-72
2022/12/28 11:54:57;;;;;;;17.00;12.60;;;8.40;99.90;;;;;;5040887;28;20470;-73
2022/12/28 11:57:35;;;;;;;13.57;10.70;;;8.40;99.90;;;;;;5030349;28;20450;-72
2022/12/28 12:00:15;;;;;;;10.73;9.63;;;8.40;99.90;;;;;;5020819;28;20453;-71
2022/12/28 12:03:02;;;;;;;9.23;8.20;;;8.40;99.90;;;;;;5048537;28;20451;-71
2022/12/28 12:05:37;;;;;;;10.57;8.53;;;8.40;99.90;;;;;;5032104;28;20439;-71
2022/12/28 12:08:14;;;;;;;7.23;5.93;;;8.40;99.90;;;;;;5013536;28;20477;-71
2022/12/28 12:10:47;;;;;;;5.83;5.33;;;8.40;99.90;;;;;;5032449;28;20434;-71
2022/12/28 12:13:38;;;;;;;5.20;4.70;;;8.40;99.90;;;;;;5031940;28;20458;-72
2022/12/28 12:16:15;;;;;;;6.30;5.03;;;8.40;99.90;;;;;;5045100;28;20517;-71
2022/12/28 12:18:48;;;;;;;8.33;6.10;;;8.40;99.90;;;;;;5031793;28;20462;-71
2022/12/28 12:21:28;;;;;;;6.50;5.53;;;8.40;99.90;;;;;;5012245;28;20559;-72
2022/12/28 12:24:09;;;;;;;5.00;3.90;;;8.40;99.90;;;;;;5013751;28;20849;-71
2022/12/28 12:26:42;;;;;;;4.17;3.40;;;8.40;99.90;;;;;;5031574;28;20478;-72
2022/12/28 12:29:23;;;;;;;4.23;2.50;;;8.40;99.90;;;;;;5008684;28;20446;-72
2022/12/28 12:32:03;;;;;;;11.97;6.60;;;8.40;99.90;;;;;;5038062;28;21038;-71
2022/12/28 12:34:45;;;;;;;25.83;16.67;;;8.40;99.90;;;;;;5015469;28;20512;-72
2022/12/28 12:37:20;;;;;;;20.87;13.57;;;8.40;99.90;;;;;;5012857;28;20466;-71
2022/12/28 12:40:08;;;;;;;25.10;15.03;;;8.50;99.90;;;;;;5031498;28;20461;-70
2022/12/28 12:42:54;;;;;;;27.17;17.30;;;8.50;99.90;;;;;;5047366;28;20527;-71
2022/12/28 12:45:55;;;;;;;17.97;14.00;;;8.50;99.90;;;;;;5020469;28;20438;-72
2022/12/28 12:48:47;;;;;;;18.60;10.37;;;8.50;99.90;;;;;;4980736;28;20444;-71
2022/12/28 12:51:19;;;;;;;15.13;9.57;;;8.60;99.90;;;;;;5043220;28;20447;-72
2022/12/28 12:53:55;;;;;;;12.50;9.17;;;8.60;99.90;;;;;;5031843;28;20800;-71
2022/12/28 12:56:48;;;;;;;8.20;5.93;;;8.60;99.90;;;;;;5030640;28;21019;-71
2022/12/28 12:59:40;;;;;;;3.80;3.50;;;8.60;99.90;;;;;;4994443;28;20693;-71
2022/12/28 13:02:31;;;;;;;3.53;2.97;;;8.60;99.90;;;;;;4998920;28;20462;-71
2022/12/28 13:05:01;;;;;;;7.90;5.07;;;8.60;99.90;;;;;;5030044;28;20450;-72
2022/12/28 13:07:27;;;;;;;15.47;9.10;;;8.60;99.90;;;;;;5015444;28;20443;-71
2022/12/28 13:09:57;;;;;;;20.33;12.20;;;8.60;99.90;;;;;;5016061;28;20443;-71
2022/12/28 13:12:24;;;;;;;17.90;11.10;;;8.60;99.90;;;;;;5027326;28;20444;-71
2022/12/28 13:14:58;;;;;;;8.97;7.20;;;8.60;99.90;;;;;;5041533;28;20485;-71
2022/12/28 13:17:24;;;;;;;8.63;6.73;;;8.60;99.90;;;;;;5016127;28;20521;-71
2022/12/28 13:19:50;;;;;;;5.70;4.87;;;8.60;99.90;;;;;;5015702;28;20442;-70
2022/12/28 13:22:30;;;;;;;4.17;2.60;;;8.60;99.90;;;;;;5031447;28;20453;-71
2022/12/28 13:24:57;;;;;;;3.33;2.87;;;8.70;99.90;;;;;;5015681;28;20219;-71
2022/12/28 13:27:43;;;;;;;2.63;1.90;;;8.70;99.90;;;;;;4997105;28;20782;-72
2022/12/28 13:30:16;;;;;;;2.67;2.47;;;8.70;99.90;;;;;;5029408;28;20519;-71
2022/12/28 13:32:50;;;;;;;3.60;2.20;;;8.70;99.90;;;;;;5031661;28;20458;-72
2022/12/28 13:35:18;;;;;;;3.27;2.03;;;8.70;99.90;;;;;;5028861;28;20502;-71
2022/12/28 13:38:03;;;;;;;2.67;1.83;;;8.70;99.90;;;;;;5012789;28;20458;-71
2022/12/28 13:40:31;;;;;;;4.10;2.33;;;8.70;99.90;;;;;;5038285;28;20434;-71
2022/12/28 13:43:18;;;;;;;2.30;2.10;;;8.70;99.90;;;;;;5014002;28;20443;-71
2022/12/28 13:45:45;;;;;;;2.50;2.07;;;8.70;99.90;;;;;;5027826;28;20446;-72